Time;durP1;ratioP1;P1;durP2;ratioP2;P2;SDS_P1;SDS_P2;PMS_P1;PMS_P2;Temp;Humidity;BMP_temperature;BMP_pressure;BME280_temperature;BME280_humidity;BME280_pressure;Samples;Min_cycle;Max_cycle;Signal;HPM_P1;HPM_P2
2024/03/08 00:00:42;;;;;;;5.43;2.83;;;9.40;96.70;;;;;;4979867;28;20608;-71
2024/03/08 00:03:11;;;;;;;7.00;3.45;;;9.40;96.70;;;;;;4976132;28;20516;-71
2024/03/08 00:05:41;;;;;;;7.43;3.15;;;9.40;96.70;;;;;;4988363;28;20054;-72
2024/03/08 00:08:09;;;;;;;6.70;3.47;;;9.30;96.70;;;;;;4985664;28;20463;-72
2024/03/08 00:10:38;;;;;;;7.47;3.30;;;9.30;96.70;;;;;;4978822;28;20050;-71
2024/03/08 00:13:10;;;;;;;4.53;3.20;;;9.30;96.70;;;;;;4988977;28;20054;-71
2024/03/08 00:15:39;;;;;;;5.32;3.53;;;9.30;96.70;;;;;;5004910;28;20145;-71
2024/03/08 00:18:08;;;;;;;5.78;3.83;;;9.20;96.70;;;;;;4996383;28;20049;-71
2024/03/08 00:20:36;;;;;;;4.80;3.08;;;9.20;96.70;;;;;;4991629;28;20086;-71
2024/03/08 00:23:05;;;;;;;6.50;3.70;;;9.20;96.70;;;;;;4991857;28;20101;-71
2024/03/08 00:25:35;;;;;;;7.63;4.32;;;9.20;96.70;;;;;;4993567;28;20042;-71
2024/03/08 00:28:05;;;;;;;7.78;4.30;;;9.10;96.70;;;;;;4994119;28;20539;-71
2024/03/08 00:30:37;;;;;;;7.35;3.78;;;9.10;96.70;;;;;;4980327;28;20061;-71
2024/03/08 00:33:06;;;;;;;8.77;4.65;;;9.10;96.70;;;;;;4989148;28;20049;-71
2024/03/08 00:35:35;;;;;;;6.53;4.57;;;9.10;96.70;;;;;;4978331;28;20039;-71
2024/03/08 00:38:03;;;;;;;5.65;3.65;;;9.00;96.70;;;;;;4969089;28;20069;-71
2024/03/08 00:40:31;;;;;;;5.93;3.80;;;9.00;96.70;;;;;;4975032;28;20086;-71
2024/03/08 00:43:00;;;;;;;7.80;4.07;;;8.90;96.70;;;;;;4975333;28;20057;-71
2024/03/08 00:45:29;;;;;;;8.27;4.13;;;8.90;96.70;;;;;;4956610;28;20046;-71
2024/03/08 00:48:00;;;;;;;5.82;3.22;;;8.90;96.70;;;;;;4981594;28;20597;-72
2024/03/08 00:50:29;;;;;;;8.93;3.95;;;8.90;96.70;;;;;;4974490;28;20161;-72
2024/03/08 00:52:57;;;;;;;5.93;3.60;;;8.90;96.70;;;;;;4956513;28;20047;-72
2024/03/08 00:55:26;;;;;;;5.00;3.58;;;8.80;96.70;;;;;;4956860;28;20119;-72
2024/03/08 00:57:55;;;;;;;6.55;3.20;;;8.80;96.70;;;;;;4980534;28;20054;-72
2024/03/08 01:00:25;;;;;;;5.20;3.25;;;8.80;96.70;;;;;;4966608;28;20051;-72
2024/03/08 01:02:54;;;;;;;7.32;3.70;;;8.80;96.70;;;;;;4967541;28;20073;-72
2024/03/08 01:05:25;;;;;;;8.18;4.03;;;8.80;96.70;;;;;;4959452;28;20050;-71
2024/03/08 01:07:54;;;;;;;5.22;3.15;;;8.80;96.70;;;;;;4950966;28;20051;-71
2024/03/08 01:10:23;;;;;;;5.05;3.22;;;8.70;96.70;;;;;;4950113;28;20042;-71
2024/03/08 01:12:52;;;;;;;5.93;3.40;;;8.70;96.70;;;;;;4976524;28;20511;-72
2024/03/08 01:15:20;;;;;;;7.55;3.53;;;8.70;96.70;;;;;;4967924;28;20146;-71
2024/03/08 01:17:51;;;;;;;5.78;3.97;;;8.70;96.70;;;;;;4977988;28;20050;-71
2024/03/08 01:20:21;;;;;;;5.68;3.70;;;8.70;96.70;;;;;;4950622;28;20066;-71
2024/03/08 01:22:50;;;;;;;6.45;4.20;;;8.70;96.70;;;;;;4963976;28;20068;-71
2024/03/08 01:25:19;;;;;;;7.30;4.25;;;8.70;96.70;;;;;;4968604;28;20108;-71
2024/03/08 01:27:48;;;;;;;5.78;3.47;;;8.60;96.70;;;;;;4967812;28;20051;-71
2024/03/08 01:30:17;;;;;;;5.97;3.65;;;8.60;96.70;;;;;;4967359;28;20536;-71
2024/03/08 01:32:48;;;;;;;5.25;2.92;;;8.60;96.70;;;;;;4975408;28;20042;-71
2024/03/08 01:35:18;;;;;;;5.25;3.45;;;8.60;96.70;;;;;;4952356;28;20735;-71
2024/03/08 01:37:48;;;;;;;7.28;3.30;;;8.50;96.70;;;;;;4984710;28;20058;-71
2024/03/08 01:40:18;;;;;;;5.70;3.47;;;8.50;96.70;;;;;;4961602;28;20061;-71
2024/03/08 01:42:47;;;;;;;5.93;3.25;;;8.50;96.70;;;;;;4969103;28;20101;-71
2024/03/08 01:45:16;;;;;;;7.30;4.15;;;8.50;96.70;;;;;;4964806;28;20051;-72
2024/03/08 01:47:44;;;;;;;5.45;3.00;;;8.50;96.70;;;;;;4966975;28;20055;-72
2024/03/08 01:50:14;;;;;;;6.32;3.58;;;8.50;96.70;;;;;;4971323;28;20523;-71
2024/03/08 01:52:43;;;;;;;6.10;3.53;;;8.50;96.70;;;;;;4971162;28;20423;-71
2024/03/08 01:55:15;;;;;;;6.22;3.55;;;8.50;96.70;;;;;;4994663;28;20047;-71
2024/03/08 01:57:47;;;;;;;5.13;3.33;;;8.50;96.70;;;;;;4990905;28;20594;-71
2024/03/08 02:00:19;;;;;;;8.07;3.72;;;8.60;96.70;;;;;;4971593;28;20053;-71
2024/03/08 02:02:49;;;;;;;6.80;3.30;;;8.50;96.70;;;;;;4967965;28;20097;-71
2024/03/08 02:05:20;;;;;;;7.40;3.75;;;8.50;96.70;;;;;;4985005;28;20054;-71
2024/03/08 02:07:49;;;;;;;5.03;3.67;;;8.50;96.70;;;;;;4986982;28;20054;-71
2024/03/08 02:10:18;;;;;;;5.03;3.38;;;8.50;96.70;;;;;;4974758;28;20384;-71
2024/03/08 02:12:49;;;;;;;5.47;3.47;;;8.50;96.70;;;;;;4978574;28;20053;-71
2024/03/08 02:15:18;;;;;;;5.15;2.97;;;8.40;96.70;;;;;;4987117;28;20049;-71
2024/03/08 02:17:46;;;;;;;5.13;3.03;;;8.40;96.70;;;;;;4993055;28;20046;-71
2024/03/08 02:20:19;;;;;;;5.57;2.95;;;8.30;96.70;;;;;;4983465;28;20062;-71
2024/03/08 02:22:50;;;;;;;4.72;2.42;;;8.30;96.70;;;;;;4987514;28;20057;-71
2024/03/08 02:25:19;;;;;;;4.30;2.45;;;8.30;96.70;;;;;;4968737;28;20129;-72
2024/03/08 02:27:48;;;;;;;3.42;1.80;;;8.20;96.70;;;;;;4968908;28;20046;-71
2024/03/08 02:30:17;;;;;;;4.15;2.22;;;8.10;96.70;;;;;;4971660;28;20058;-71
2024/03/08 02:32:48;;;;;;;2.95;2.00;;;8.10;96.70;;;;;;4980829;28;20042;-71
2024/03/08 02:35:16;;;;;;;4.90;2.45;;;8.10;96.70;;;;;;4971207;28;20145;-71
2024/03/08 02:37:47;;;;;;;4.43;2.10;;;8.10;96.70;;;;;;4980063;28;20050;-71
2024/03/08 02:40:19;;;;;;;6.13;2.40;;;8.10;96.70;;;;;;4965676;28;20165;-72
2024/03/08 02:42:48;;;;;;;3.65;2.20;;;8.10;96.70;;;;;;4955291;28;20054;-71
2024/03/08 02:45:17;;;;;;;3.92;2.03;;;8.00;96.70;;;;;;4961347;28;20045;-71
2024/03/08 02:47:49;;;;;;;7.10;2.83;;;7.90;96.70;;;;;;4964285;28;20053;-71
2024/03/08 02:50:18;;;;;;;2.65;1.60;;;7.90;96.70;;;;;;4978129;28;20176;-71
2024/03/08 02:52:47;;;;;;;4.70;2.05;;;7.90;96.70;;;;;;4954882;28;20622;-70
2024/03/08 02:55:19;;;;;;;3.92;1.98;;;7.80;96.70;;;;;;4969463;28;20061;-71
2024/03/08 02:57:48;;;;;;;3.80;1.80;;;7.80;96.70;;;;;;4968022;28;20055;-71
2024/03/08 03:00:19;;;;;;;2.95;1.60;;;7.80;96.70;;;;;;4974052;28;20076;-71
2024/03/08 03:02:48;;;;;;;3.75;1.70;;;7.80;96.70;;;;;;4974456;28;20050;-71
2024/03/08 03:05:19;;;;;;;3.60;2.05;;;7.80;96.70;;;;;;4954253;28;20567;-71
2024/03/08 03:07:48;;;;;;;4.45;2.05;;;7.80;96.70;;;;;;4959067;28;20114;-71
2024/03/08 03:10:21;;;;;;;3.55;1.90;;;7.80;96.70;;;;;;4956308;28;20046;-71
2024/03/08 03:12:50;;;;;;;4.57;2.97;;;7.80;96.70;;;;;;4960058;28;20046;-71
2024/03/08 03:15:20;;;;;;;5.90;2.50;;;7.70;96.70;;;;;;4952340;28;20039;-71
2024/03/08 03:17:50;;;;;;;2.70;1.92;;;7.70;96.70;;;;;;4976503;28;20132;-71
2024/03/08 03:20:26;;;;;;;5.32;2.28;;;7.70;96.70;;;;;;4950135;28;20078;-71
2024/03/08 03:22:56;;;;;;;4.07;2.30;;;7.70;96.70;;;;;;4956548;28;20070;-71
2024/03/08 03:25:32;;;;;;;2.95;2.28;;;7.60;96.70;;;;;;4959954;28;20058;-71
2024/03/08 03:28:01;;;;;;;4.30;2.03;;;7.60;96.70;;;;;;4970010;28;20053;-71
2024/03/08 03:30:33;;;;;;;4.03;2.30;;;7.50;96.70;;;;;;4952078;28;20045;-71
2024/03/08 03:33:06;;;;;;;4.50;2.00;;;7.50;96.70;;;;;;4962950;28;20050;-71
2024/03/08 03:35:36;;;;;;;2.80;2.00;;;7.50;96.70;;;;;;4963019;28;20062;-71
2024/03/08 03:38:07;;;;;;;3.75;2.72;;;7.50;96.70;;;;;;4946760;28;20047;-71
2024/03/08 03:40:41;;;;;;;5.13;2.60;;;7.60;96.70;;;;;;5003552;28;20603;-71
2024/03/08 03:43:10;;;;;;;3.58;2.17;;;7.60;96.70;;;;;;4973848;28;20069;-71
2024/03/08 03:45:41;;;;;;;3.03;2.08;;;7.60;96.70;;;;;;4989387;28;20384;-71
2024/03/08 03:48:10;;;;;;;4.22;1.88;;;7.40;96.70;;;;;;4974318;28;20514;-71
2024/03/08 03:50:40;;;;;;;3.85;2.08;;;7.40;96.70;;;;;;4982187;28;20050;-71
2024/03/08 03:53:09;;;;;;;6.18;2.33;;;7.50;96.70;;;;;;4991909;28;20058;-71
2024/03/08 03:55:40;;;;;;;6.40;3.00;;;7.50;96.70;;;;;;4971146;28;20054;-71
2024/03/08 03:58:10;;;;;;;5.93;2.35;;;7.50;96.70;;;;;;4987945;28;20491;-71
2024/03/08 04:00:41;;;;;;;3.65;2.50;;;7.60;96.70;;;;;;4987908;28;20137;-71
2024/03/08 04:03:12;;;;;;;3.05;2.08;;;7.60;96.70;;;;;;4990202;28;20104;-71
2024/03/08 04:05:40;;;;;;;5.75;2.42;;;7.70;96.70;;;;;;4995998;28;20137;-71
2024/03/08 04:08:09;;;;;;;4.93;2.35;;;7.60;96.70;;;;;;4989329;28;20046;-70
2024/03/08 04:10:41;;;;;;;4.68;2.55;;;7.50;96.70;;;;;;4990648;28;20392;-71
2024/03/08 04:13:11;;;;;;;3.70;2.35;;;7.40;96.70;;;;;;4989730;28;20060;-71
2024/03/08 04:15:40;;;;;;;3.42;1.92;;;7.40;96.70;;;;;;4970702;28;20554;-71
2024/03/08 04:18:10;;;;;;;4.60;2.42;;;7.40;96.70;;;;;;4988090;28;20088;-71
2024/03/08 04:20:41;;;;;;;4.65;2.78;;;7.40;96.70;;;;;;4990571;28;20053;-71
2024/03/08 04:23:12;;;;;;;3.13;1.80;;;7.30;96.70;;;;;;4994230;28;20080;-71
2024/03/08 04:25:42;;;;;;;4.00;2.00;;;7.30;96.70;;;;;;4977879;28;20138;-71
2024/03/08 04:28:14;;;;;;;4.25;2.13;;;7.30;96.70;;;;;;4998642;28;20073;-71
2024/03/08 04:30:46;;;;;;;3.20;2.10;;;7.30;96.70;;;;;;4972928;28;20073;-71
2024/03/08 04:33:16;;;;;;;3.17;1.90;;;7.40;96.70;;;;;;4991130;28;20762;-72
2024/03/08 04:35:46;;;;;;;4.35;2.42;;;7.40;96.70;;;;;;5001682;28;20636;-71
2024/03/08 04:38:15;;;;;;;4.65;2.35;;;7.40;96.70;;;;;;4989990;28;20081;-71
2024/03/08 04:40:45;;;;;;;6.75;2.00;;;7.40;96.70;;;;;;4998671;28;20058;-71
2024/03/08 04:43:14;;;;;;;6.13;2.45;;;7.40;96.70;;;;;;4988732;28;20519;-71
2024/03/08 04:45:43;;;;;;;3.53;2.22;;;7.50;96.70;;;;;;4984177;28;20105;-71
2024/03/08 04:48:13;;;;;;;4.82;2.42;;;7.50;96.70;;;;;;4989335;28;20656;-71
2024/03/08 04:50:42;;;;;;;4.25;2.22;;;7.40;96.70;;;;;;4996452;28;20058;-71
2024/03/08 04:53:12;;;;;;;3.08;2.15;;;7.30;96.70;;;;;;4968015;28;20049;-71
2024/03/08 04:55:40;;;;;;;5.85;2.70;;;7.30;96.70;;;;;;4971310;28;20112;-71
2024/03/08 04:58:12;;;;;;;4.05;2.08;;;7.30;96.70;;;;;;4957729;28;20054;-71
2024/03/08 05:00:40;;;;;;;4.00;2.35;;;7.30;96.70;;;;;;4967273;28;20045;-71
2024/03/08 05:03:11;;;;;;;3.25;2.30;;;7.30;96.70;;;;;;4954245;28;20112;-71
2024/03/08 05:05:41;;;;;;;4.00;2.60;;;7.20;96.70;;;;;;4971584;28;20100;-71
2024/03/08 05:08:11;;;;;;;5.28;2.63;;;7.20;96.70;;;;;;4984409;28;20150;-71
2024/03/08 05:10:41;;;;;;;5.18;2.30;;;7.20;96.70;;;;;;4980221;28;20045;-71
2024/03/08 05:13:12;;;;;;;5.80;2.85;;;7.20;96.70;;;;;;4980097;28;20466;-71
2024/03/08 05:15:41;;;;;;;5.25;2.60;;;7.20;96.70;;;;;;4979120;28;20074;-71
2024/03/08 05:18:11;;;;;;;4.28;2.95;;;7.20;96.70;;;;;;4963618;28;20069;-71
2024/03/08 05:20:41;;;;;;;3.85;2.72;;;7.20;96.70;;;;;;4984792;28;20507;-71
2024/03/08 05:23:10;;;;;;;5.70;2.67;;;7.20;96.70;;;;;;4971389;28;20081;-71
2024/03/08 05:25:38;;;;;;;5.57;2.70;;;7.10;96.70;;;;;;4987714;28;20112;-70
2024/03/08 05:28:07;;;;;;;6.72;3.13;;;7.10;96.70;;;;;;4976712;28;20474;-71
2024/03/08 05:30:40;;;;;;;4.95;2.75;;;7.00;96.70;;;;;;4970556;28;20046;-70
2024/03/08 05:33:10;;;;;;;5.25;2.88;;;7.00;96.70;;;;;;4972813;28;20050;-71
2024/03/08 05:35:40;;;;;;;5.75;2.90;;;7.00;96.70;;;;;;4974698;28;20053;-71
2024/03/08 05:38:08;;;;;;;5.68;2.65;;;7.00;96.70;;;;;;4988934;28;20054;-71
2024/03/08 05:40:36;;;;;;;5.20;2.85;;;7.00;96.70;;;;;;5003310;28;20069;-71
2024/03/08 05:43:05;;;;;;;4.80;2.97;;;7.00;96.70;;;;;;4989070;28;20438;-71
2024/03/08 05:45:34;;;;;;;5.38;2.80;;;7.00;96.70;;;;;;4971085;28;20056;-71
2024/03/08 05:48:06;;;;;;;6.07;2.28;;;6.90;96.70;;;;;;4991375;28;20053;-71
2024/03/08 05:50:36;;;;;;;3.97;2.50;;;6.90;96.70;;;;;;4977224;28;20054;-71
2024/03/08 05:53:06;;;;;;;4.60;3.03;;;6.90;96.70;;;;;;5009323;28;20053;-71
2024/03/08 05:55:38;;;;;;;9.13;2.97;;;6.90;96.70;;;;;;4990217;28;20054;-71
2024/03/08 05:58:07;;;;;;;4.43;3.17;;;6.90;96.70;;;;;;5005291;28;20569;-70
2024/03/08 06:00:40;;;;;;;5.88;2.65;;;6.90;96.70;;;;;;4971900;28;20073;-71
2024/03/08 06:03:10;;;;;;;4.35;2.60;;;7.00;96.70;;;;;;4993044;28;20503;-71
2024/03/08 06:05:41;;;;;;;5.50;2.80;;;7.10;96.70;;;;;;4994098;28;20049;-71
2024/03/08 06:08:11;;;;;;;6.75;2.70;;;7.10;96.70;;;;;;4976603;28;20143;-71
2024/03/08 06:10:39;;;;;;;5.55;2.67;;;7.00;96.70;;;;;;4969029;28;20070;-70
2024/03/08 06:13:08;;;;;;;5.50;2.53;;;7.10;96.70;;;;;;4992556;28;20331;-71
2024/03/08 06:15:38;;;;;;;7.47;3.10;;;7.00;96.70;;;;;;4973189;28;20060;-71
2024/03/08 06:18:07;;;;;;;5.35;3.17;;;7.00;96.70;;;;;;4992966;28;20145;-71
2024/03/08 06:20:38;;;;;;;3.85;2.53;;;6.90;96.70;;;;;;4976979;28;20064;-71
2024/03/08 06:23:09;;;;;;;7.40;2.83;;;6.90;96.70;;;;;;4989760;28;20081;-71
2024/03/08 06:25:37;;;;;;;4.72;2.53;;;6.90;96.70;;;;;;4992796;28;20041;-70
2024/03/08 06:28:07;;;;;;;5.82;2.70;;;6.90;96.70;;;;;;4992416;28;20062;-71
2024/03/08 06:30:36;;;;;;;4.57;2.72;;;6.90;96.70;;;;;;4985575;28;20683;-71
2024/03/08 06:33:05;;;;;;;4.28;2.53;;;7.00;96.70;;;;;;4992569;28;20038;-71
2024/03/08 06:35:34;;;;;;;5.05;2.60;;;7.00;96.70;;;;;;4976404;28;20089;-71
2024/03/08 06:38:07;;;;;;;4.03;2.67;;;7.00;96.70;;;;;;4991749;28;20099;-71
2024/03/08 06:40:36;;;;;;;6.13;3.10;;;7.00;96.70;;;;;;4962841;28;20057;-71
2024/03/08 06:43:05;;;;;;;5.25;2.80;;;7.10;96.70;;;;;;4976653;28;20078;-71
2024/03/08 06:45:37;;;;;;;5.07;2.70;;;7.10;96.70;;;;;;4961270;28;20050;-70
2024/03/08 06:48:09;;;;;;;5.30;2.85;;;7.30;96.70;;;;;;4989370;28;20466;-71
2024/03/08 06:50:41;;;;;;;6.45;3.30;;;7.40;96.70;;;;;;4973296;28;20113;-71
2024/03/08 06:53:11;;;;;;;6.07;3.47;;;7.40;96.70;;;;;;4970345;28;20144;-71
2024/03/08 06:55:41;;;;;;;6.07;3.60;;;7.40;96.70;;;;;;4967857;28;20046;-71
2024/03/08 06:58:11;;;;;;;4.97;3.38;;;7.50;96.70;;;;;;4968972;28;20468;-71
2024/03/08 07:00:40;;;;;;;5.93;4.35;;;7.50;96.70;;;;;;4977851;28;20414;-71
2024/03/08 07:03:17;;;;;;;7.57;4.13;;;7.60;96.70;;;;;;4988668;28;20144;-71
2024/03/08 07:05:46;;;;;;;5.65;3.67;;;7.60;96.70;;;;;;4973398;28;20060;-71
2024/03/08 07:08:16;;;;;;;5.57;3.75;;;7.60;96.70;;;;;;4988448;28;20058;-71
2024/03/08 07:10:46;;;;;;;5.85;3.85;;;7.60;96.70;;;;;;4972502;28;20515;-71
2024/03/08 07:13:14;;;;;;;4.18;3.22;;;7.60;96.70;;;;;;4971703;28;20598;-70
2024/03/08 07:15:44;;;;;;;5.93;3.65;;;7.70;96.70;;;;;;4981074;28;20047;-71
2024/03/08 07:18:14;;;;;;;8.05;3.85;;;7.80;96.70;;;;;;4988228;28;20050;-70
2024/03/08 07:20:43;;;;;;;6.53;3.97;;;7.80;96.70;;;;;;4987450;28;20093;-71
2024/03/08 07:23:46;;;;;;;7.18;3.53;;;7.80;96.70;;;;;;4960220;28;20134;-71
2024/03/08 07:26:07;;;;;;;4.65;3.72;;;7.90;96.70;;;;;;4984941;28;20050;-71
2024/03/08 07:28:36;;;;;;;8.65;4.05;;;7.90;96.70;;;;;;4970315;28;20065;-71
2024/03/08 07:33:51;;;;;;;;;;;8.10;96.70;;;;;;4988033;28;20050;-71
2024/03/08 07:36:20;;;;;;;7.90;4.90;;;8.20;96.70;;;;;;4973962;28;19933;-71
2024/03/08 07:38:53;;;;;;;9.15;4.53;;;8.20;96.70;;;;;;4985332;28;20137;-71
2024/03/08 07:41:23;;;;;;;7.47;4.65;;;8.40;96.70;;;;;;4998024;28;20875;-71
2024/03/08 07:43:52;;;;;;;8.85;6.47;;;8.50;96.70;;;;;;4960682;28;20050;-71
2024/03/08 07:46:23;;;;;;;9.48;6.68;;;8.60;96.70;;;;;;4960969;28;20609;-71
2024/03/08 07:48:51;;;;;;;8.43;5.85;;;8.70;96.70;;;;;;4970328;28;20061;-71
2024/03/08 07:51:20;;;;;;;9.70;6.95;;;8.80;96.70;;;;;;4985798;28;20096;-71
2024/03/08 07:53:49;;;;;;;9.75;6.95;;;8.90;96.70;;;;;;4970725;28;20050;-71
2024/03/08 07:56:21;;;;;;;12.45;7.18;;;9.00;96.70;;;;;;4960702;28;20108;-71
2024/03/08 07:58:50;;;;;;;8.27;6.25;;;9.00;96.70;;;;;;4988247;28;20058;-71
2024/03/08 08:01:19;;;;;;;9.25;6.47;;;9.10;96.70;;;;;;4968740;28;20635;-71
2024/03/08 08:03:50;;;;;;;6.82;5.60;;;9.20;96.70;;;;;;4983194;28;20086;-71
2024/03/08 08:06:19;;;;;;;11.32;6.55;;;9.20;96.70;;;;;;4956785;28;20051;-71
2024/03/08 08:08:48;;;;;;;10.10;6.78;;;9.30;96.70;;;;;;4970806;28;20084;-71
2024/03/08 08:11:20;;;;;;;9.50;7.20;;;9.30;96.70;;;;;;4983023;28;20074;-71
2024/03/08 08:13:49;;;;;;;8.75;5.78;;;9.50;96.70;;;;;;4987478;28;20637;-71
2024/03/08 08:16:17;;;;;;;7.78;5.85;;;9.50;96.70;;;;;;4965547;28;20073;-72
2024/03/08 08:18:47;;;;;;;8.45;5.75;;;9.60;96.70;;;;;;4987298;28;20092;-72
2024/03/08 08:21:17;;;;;;;8.35;5.70;;;9.70;96.70;;;;;;4993022;28;20045;-70
2024/03/08 08:23:47;;;;;;;10.77;5.93;;;9.70;96.70;;;;;;4986765;28;20057;-70
2024/03/08 08:26:16;;;;;;;8.95;5.68;;;9.80;96.70;;;;;;4970098;28;20054;-70
2024/03/08 08:28:48;;;;;;;8.30;5.45;;;9.90;96.70;;;;;;4961081;28;20058;-70
2024/03/08 08:31:16;;;;;;;8.15;6.35;;;9.90;96.70;;;;;;4984127;28;20050;-70
2024/03/08 08:33:45;;;;;;;8.32;5.50;;;10.10;96.70;;;;;;4994882;28;20140;-70
2024/03/08 08:36:17;;;;;;;7.22;5.28;;;10.10;96.70;;;;;;4977121;28;20056;-70
2024/03/08 08:38:46;;;;;;;8.80;5.75;;;10.20;96.70;;;;;;4980198;28;20125;-70
2024/03/08 08:41:17;;;;;;;9.38;5.72;;;10.30;96.70;;;;;;4974414;28;20073;-69
2024/03/08 08:43:45;;;;;;;9.13;5.43;;;10.40;96.70;;;;;;4982630;28;20046;-69
2024/03/08 08:46:33;;;;;;;10.50;5.75;;;10.50;96.70;;;;;;4971201;28;20108;-70
2024/03/08 08:49:06;;;;;;;9.00;5.50;;;10.60;96.70;;;;;;4970509;28;20424;-70
2024/03/08 08:51:34;;;;;;;9.55;5.78;;;10.70;96.70;;;;;;4978382;28;20046;-70
2024/03/08 08:54:06;;;;;;;9.35;5.25;;;10.80;96.70;;;;;;4974179;28;20069;-71
2024/03/08 08:56:40;;;;;;;6.93;5.00;;;10.90;96.70;;;;;;4970616;28;20062;-70
2024/03/08 08:59:09;;;;;;;8.38;5.80;;;11.00;96.70;;;;;;4973533;28;20149;-71
2024/03/08 09:01:40;;;;;;;7.30;4.95;;;11.20;96.70;;;;;;4979217;28;20065;-70
2024/03/08 09:04:11;;;;;;;6.75;4.80;;;11.30;96.70;;;;;;4989130;28;20061;-70
2024/03/08 09:06:42;;;;;;;9.18;5.55;;;11.40;96.70;;;;;;4976091;28;20065;-71
2024/03/08 09:09:13;;;;;;;8.45;4.88;;;11.50;96.70;;;;;;4983028;28;20065;-70
2024/03/08 09:11:46;;;;;;;8.85;5.57;;;11.60;96.70;;;;;;4986131;28;20182;-71
2024/03/08 09:14:14;;;;;;;8.70;5.35;;;11.70;96.70;;;;;;4970283;28;20056;-71
2024/03/08 09:16:48;;;;;;;8.23;5.25;;;11.80;96.70;;;;;;4995632;28;20070;-71
2024/03/08 09:19:17;;;;;;;7.05;4.95;;;12.00;96.70;;;;;;4952532;28;20085;-71
2024/03/08 09:21:47;;;;;;;9.75;5.35;;;12.10;96.70;;;;;;4963940;28;20054;-71
2024/03/08 09:24:16;;;;;;;7.15;5.20;;;12.20;96.70;;;;;;4970329;28;20511;-71
2024/03/08 09:26:47;;;;;;;10.55;5.57;;;12.30;96.70;;;;;;4983788;28;20058;-71
2024/03/08 09:29:16;;;;;;;10.88;6.07;;;12.50;96.70;;;;;;4970642;28;20199;-71
2024/03/08 09:31:46;;;;;;;8.48;5.30;;;12.60;96.70;;;;;;4981542;28;20169;-70
2024/03/08 09:34:18;;;;;;;7.88;5.72;;;12.70;96.70;;;;;;4973141;28;20515;-71
2024/03/08 09:36:53;;;;;;;6.28;5.32;;;12.70;96.70;;;;;;4973867;28;20054;-70
2024/03/08 09:39:23;;;;;;;9.32;6.05;;;12.90;96.70;;;;;;4972680;28;20057;-71
2024/03/08 09:41:57;;;;;;;9.07;5.68;;;13.00;96.70;;;;;;4986145;28;20054;-71
2024/03/08 09:44:25;;;;;;;7.00;5.05;;;13.10;96.70;;;;;;4990222;28;20306;-71
2024/03/08 09:46:55;;;;;;;10.07;5.72;;;13.10;96.70;;;;;;4986977;28;20640;-71
2024/03/08 09:49:28;;;;;;;8.73;5.70;;;13.20;96.70;;;;;;4972670;28;20156;-71
2024/03/08 09:51:57;;;;;;;9.07;6.10;;;13.50;96.70;;;;;;4973867;28;20061;-70
2024/03/08 09:54:26;;;;;;;8.85;5.55;;;13.40;96.70;;;;;;4972051;28;20085;-71
2024/03/08 09:56:55;;;;;;;6.68;5.05;;;13.40;96.70;;;;;;4989756;28;20038;-70
2024/03/08 10:01:58;;;;;;;8.23;5.32;;;13.50;96.70;;;;;;4988830;28;20057;-71
2024/03/08 10:04:33;;;;;;;7.55;4.80;;;13.70;96.70;;;;;;4978339;28;20060;-71
2024/03/08 10:07:02;;;;;;;6.80;5.28;;;13.80;96.70;;;;;;4992548;28;20522;-71
2024/03/08 10:09:32;;;;;;;9.90;5.40;;;13.90;96.70;;;;;;4978733;28;20050;-70
2024/03/08 10:12:02;;;;;;;10.10;5.72;;;13.90;96.70;;;;;;4984797;28;20054;-70
2024/03/08 10:14:31;;;;;;;7.80;5.10;;;13.90;96.70;;;;;;4988465;28;20058;-71
2024/03/08 10:17:00;;;;;;;5.90;4.43;;;13.90;96.70;;;;;;4972405;28;20072;-70
2024/03/08 10:19:30;;;;;;;6.68;4.95;;;14.00;96.70;;;;;;4971379;28;20054;-70
2024/03/08 10:22:00;;;;;;;9.15;5.43;;;14.10;96.70;;;;;;5001880;28;20050;-71
2024/03/08 10:24:28;;;;;;;7.35;4.90;;;14.10;96.70;;;;;;4988395;28;20042;-70
2024/03/08 10:27:00;;;;;;;8.30;4.50;;;14.10;96.70;;;;;;4988563;28;20152;-70
2024/03/08 10:29:28;;;;;;;6.82;5.18;;;14.10;96.70;;;;;;4966919;28;20057;-70
2024/03/08 10:31:59;;;;;;;7.57;5.10;;;14.20;96.70;;;;;;4968082;28;20054;-70
2024/03/08 10:34:30;;;;;;;10.25;6.32;;;14.30;96.70;;;;;;4991541;28;20064;-71
2024/03/08 10:37:03;;;;;;;10.75;7.53;;;14.30;96.70;;;;;;4976727;28;20050;-70
2024/03/08 10:39:35;;;;;;;12.40;7.45;;;14.50;96.70;;;;;;4973344;28;20121;-70
2024/03/08 10:42:09;;;;;;;14.07;8.57;;;14.60;96.70;;;;;;4973506;28;20169;-71
2024/03/08 10:44:50;;;;;;;18.90;10.93;;;14.80;96.70;;;;;;4973651;28;20050;-71
2024/03/08 10:47:25;;;;;;;17.08;9.45;;;14.90;96.70;;;;;;4988042;28;20787;-71
2024/03/08 10:50:12;;;;;;;14.30;9.10;;;14.80;96.70;;;;;;4973516;28;20149;-71
2024/03/08 10:52:41;;;;;;;12.93;7.45;;;14.90;96.70;;;;;;5000764;28;20054;-70
2024/03/08 10:55:13;;;;;;;14.40;6.97;;;14.90;96.70;;;;;;4973722;28;20050;-71
2024/03/08 10:57:43;;;;;;;9.43;5.40;;;14.90;96.70;;;;;;4973197;28;20423;-71
2024/03/08 11:00:13;;;;;;;6.95;4.97;;;15.00;96.70;;;;;;4989199;28;20797;-71
2024/03/08 11:02:45;;;;;;;5.43;3.30;;;15.20;96.70;;;;;;4969898;28;20105;-71
2024/03/08 11:05:35;;;;;;;6.10;4.03;;;15.40;96.70;;;;;;4967021;28;20050;-71
2024/03/08 11:08:20;;;;;;;5.68;3.58;;;15.60;96.70;;;;;;4986196;28;20070;-71
2024/03/08 11:10:52;;;;;;;7.13;4.10;;;15.70;96.70;;;;;;4969940;28;20057;-71
2024/03/08 11:13:37;;;;;;;6.55;4.00;;;15.80;96.70;;;;;;4988610;28;20058;-71
2024/03/08 11:16:09;;;;;;;5.22;3.67;;;15.80;96.70;;;;;;4984879;28;20173;-71
2024/03/08 11:18:39;;;;;;;5.88;3.40;;;15.60;96.70;;;;;;4957424;28;20145;-71
2024/03/08 11:21:14;;;;;;;6.15;2.75;;;15.30;96.70;;;;;;4974311;28;20051;-71
2024/03/08 11:23:43;;;;;;;5.15;2.92;;;15.40;96.70;;;;;;4953650;28;20058;-71
2024/03/08 11:26:19;;;;;;;5.00;2.90;;;15.40;96.70;;;;;;4969245;28;20054;-71
2024/03/08 11:28:51;;;;;;;4.82;2.60;;;15.50;96.70;;;;;;4986796;28;20461;-71
2024/03/08 11:31:25;;;;;;;5.30;2.88;;;15.50;96.70;;;;;;4953667;28;20055;-71
2024/03/08 11:33:57;;;;;;;4.18;2.90;;;15.40;96.70;;;;;;4978311;28;20051;-71
2024/03/08 11:36:29;;;;;;;4.13;2.35;;;15.20;96.70;;;;;;4992451;28;20562;-71
2024/03/08 11:38:59;;;;;;;3.92;2.90;;;15.10;96.70;;;;;;4981858;28;20455;-71
2024/03/08 11:41:32;;;;;;;5.50;3.35;;;15.10;96.70;;;;;;4990063;28;20117;-71
2024/03/08 11:44:08;;;;;;;4.65;2.92;;;15.00;96.70;;;;;;4970264;28;20050;-71
2024/03/08 11:46:42;;;;;;;3.72;2.65;;;15.00;96.70;;;;;;4988289;28;20527;-71
2024/03/08 11:49:13;;;;;;;3.90;2.78;;;15.00;96.70;;;;;;4961503;28;20054;-71
2024/03/08 11:51:45;;;;;;;5.28;3.05;;;15.10;96.70;;;;;;4976577;28;20058;-71
2024/03/08 11:54:15;;;;;;;3.88;2.67;;;15.40;96.70;;;;;;4972146;28;20058;-71
2024/03/08 11:56:47;;;;;;;4.00;2.40;;;15.80;96.70;;;;;;4975835;28;20057;-71
2024/03/08 11:59:18;;;;;;;4.50;2.90;;;16.00;96.70;;;;;;4963572;28;20047;-71
2024/03/08 12:01:59;;;;;;;7.43;2.67;;;16.00;96.70;;;;;;4971903;28;20443;-71
2024/03/08 12:04:30;;;;;;;3.15;2.10;;;15.80;96.70;;;;;;4984876;28;20054;-71
2024/03/08 12:07:14;;;;;;;3.20;1.90;;;16.10;96.70;;;;;;4972063;28;20057;-71
2024/03/08 12:09:46;;;;;;;3.10;2.25;;;15.90;96.70;;;;;;4987074;28;20065;-70
2024/03/08 12:12:16;;;;;;;3.88;2.13;;;15.70;96.70;;;;;;4987718;28;20082;-70
2024/03/08 12:14:46;;;;;;;3.78;2.15;;;15.70;96.70;;;;;;4971723;28;20050;-71
2024/03/08 12:17:15;;;;;;;3.08;1.63;;;15.70;96.70;;;;;;4971483;28;20764;-71
2024/03/08 12:19:48;;;;;;;2.85;1.90;;;15.70;96.70;;;;;;4982900;28;20096;-70
2024/03/08 12:22:27;;;;;;;3.75;2.22;;;15.70;96.70;;;;;;4988217;28;20491;-71
2024/03/08 12:25:10;;;;;;;4.13;2.20;;;15.80;96.70;;;;;;4970976;28;20062;-71
2024/03/08 12:27:40;;;;;;;3.65;2.03;;;15.90;96.70;;;;;;4972586;28;20064;-70
2024/03/08 12:30:18;;;;;;;3.90;2.47;;;15.90;96.70;;;;;;4987249;28;20565;-71
2024/03/08 12:32:53;;;;;;;2.78;1.85;;;15.90;96.70;;;;;;4987414;28;20126;-71
2024/03/08 12:35:23;;;;;;;4.05;1.95;;;15.70;96.70;;;;;;4979864;28;20055;-71
2024/03/08 12:37:53;;;;;;;2.75;1.55;;;15.60;96.70;;;;;;4968047;28;20070;-72
2024/03/08 12:40:28;;;;;;;4.40;2.10;;;15.60;96.70;;;;;;4983966;28;20063;-71
2024/03/08 12:42:59;;;;;;;3.83;1.90;;;15.70;96.70;;;;;;4967943;28;20051;-71
2024/03/08 12:45:28;;;;;;;4.80;1.63;;;15.70;96.70;;;;;;4984038;28;20085;-71
2024/03/08 12:47:59;;;;;;;3.38;1.85;;;15.80;96.70;;;;;;4983916;28;20042;-71
2024/03/08 12:50:29;;;;;;;3.65;1.70;;;15.90;96.70;;;;;;4985828;28;20058;-71
2024/03/08 12:53:01;;;;;;;4.00;1.45;;;16.10;96.70;;;;;;4981888;28;20054;-71
2024/03/08 12:55:33;;;;;;;3.00;1.92;;;16.30;96.70;;;;;;4968514;28;20054;-71
2024/03/08 12:58:07;;;;;;;3.92;1.92;;;16.40;96.70;;;;;;4986158;28;20038;-71
2024/03/08 13:00:42;;;;;;;2.40;1.60;;;16.60;96.70;;;;;;4987165;28;20133;-71
2024/03/08 13:03:11;;;;;;;2.45;1.50;;;16.70;96.70;;;;;;4985041;28;20165;-70
2024/03/08 13:05:42;;;;;;;2.47;1.63;;;16.60;96.70;;;;;;4999732;28;20058;-71
2024/03/08 13:08:15;;;;;;;2.30;1.63;;;16.50;96.70;;;;;;4972240;28;20046;-71
2024/03/08 13:10:44;;;;;;;2.58;1.50;;;16.60;96.70;;;;;;4971346;28;20137;-71
2024/03/08 13:13:16;;;;;;;2.88;1.48;;;16.70;96.70;;;;;;4971139;28;20050;-71
2024/03/08 13:15:46;;;;;;;2.72;1.40;;;16.70;96.70;;;;;;4971902;28;20049;-71